首页
METAR-TAF:

METAR-TAF

机场 :

马拉松, 佛罗里达州, 美国

纬度: 24-43-33N, 经度: 081-02-52W, 海拔: 2米

当前天气观测

该预报发布于41分钟前的09:53 UTC
风速12节,风向
温度 29°C
湿度 79%
气压 1012 hPa
能見度: 16.1公里
少量云层高于2400英尺

METAR: KMTH 190953Z AUTO 10012KT 10SM FEW024 29/25 A2989 RMK AO2 SLP121 T02890250

时间: 06:34 (10:34 UTC)

预报

该预报发布于36分钟前的09:58 UTC
预报有效从19日的 10点(UTC)到 20日的 06点(UTC)
风速12节,风向,有时为22节阵风
能見度: 10公里
散云层高于2000英尺
附近有阵雨
短暂存在
从 19日的 10点(UTC)到 19日的 12点(UTC)
能見度: 4.8公里
多云层高于2000英尺
阵雨,

TAF: KMTH 190958Z 1910/2006 10012G22KT P6SM VCSH SCT020 TEMPO 1910/1912 3SM SHRA BKN020

超过4000个机场的气象观测和天气预报(METAR&TAF报告)。

可查询的气象台以黄色和红色小点在地图上表示。

将鼠标移到小点上方,可查看气象台名称。

然后点击查看天气观测和预报。

如需切换地图:点击带黑十字的绿色按钮放大地图;点击带横线的绿色按钮缩小地图;或者点击绿色箭头查看邻近地区的地图。


METAR-TAF: